createdAt,value
2018-12-15T00:00:41.980Z,-0.80
2018-12-15T00:05:49.006Z,-0.80
2018-12-15T00:10:49.828Z,-0.80
2018-12-15T00:15:51.468Z,-0.80
2018-12-15T00:20:52.204Z,-0.80
2018-12-15T00:25:53.755Z,-0.80
2018-12-15T00:30:54.585Z,-0.80
2018-12-15T00:35:57.188Z,-0.80
2018-12-15T00:40:59.403Z,-0.80
2018-12-15T00:46:00.116Z,-0.80
2018-12-15T00:51:00.938Z,-0.90
2018-12-15T00:56:01.812Z,-0.90
2018-12-15T01:01:02.561Z,-0.90
2018-12-15T01:06:04.516Z,-0.90
2018-12-15T01:11:05.479Z,-0.90
2018-12-15T01:16:06.270Z,-0.90
2018-12-15T01:21:07.677Z,-0.90
2018-12-15T01:26:08.476Z,-0.90
2018-12-15T01:31:09.333Z,-0.90
2018-12-15T01:36:10.059Z,-0.90
2018-12-15T01:41:10.910Z,-0.90
2018-12-15T01:46:11.791Z,-0.80
2018-12-15T01:51:12.536Z,-0.90
2018-12-15T01:56:13.377Z,-0.80
2018-12-15T02:01:14.260Z,-0.80
2018-12-15T02:06:15.274Z,-0.80
2018-12-15T02:11:16.457Z,-0.80
2018-12-15T02:16:17.157Z,-0.80
2018-12-15T02:21:18.315Z,-0.80
2018-12-15T02:26:19.132Z,-0.80
2018-12-15T02:31:19.898Z,-0.80
2018-12-15T02:36:21.027Z,-0.80
2018-12-15T02:41:22.143Z,-0.80
2018-12-15T02:46:22.973Z,-0.80
2018-12-15T02:51:23.788Z,-0.80
2018-12-15T02:56:26.283Z,-0.80
2018-12-15T03:01:27.117Z,-0.80
2018-12-15T03:06:27.925Z,-0.80
2018-12-15T03:11:28.703Z,-0.90
2018-12-15T03:16:29.562Z,-0.80
2018-12-15T03:21:30.455Z,-0.80
2018-12-15T03:26:31.197Z,-0.80
2018-12-15T03:31:34.421Z,-0.80
2018-12-15T03:36:35.021Z,-0.80
2018-12-15T03:41:35.843Z,-0.90
2018-12-15T03:46:36.597Z,-0.90
2018-12-15T03:51:37.388Z,-0.90
2018-12-15T03:56:38.206Z,-0.90
2018-12-15T04:01:38.969Z,-0.90
2018-12-15T04:06:40.076Z,-0.90
2018-12-15T04:11:41.018Z,-0.90
2018-12-15T04:22:26.888Z,-0.90
2018-12-15T04:27:33.521Z,-0.90
2018-12-15T04:32:36.092Z,-0.90
2018-12-15T04:37:36.767Z,-0.90
2018-12-15T04:42:37.948Z,-0.90
2018-12-15T04:47:38.719Z,-0.90
2018-12-15T04:52:39.515Z,-0.90
2018-12-15T04:57:40.251Z,-0.90
2018-12-15T05:02:44.009Z,-0.90
2018-12-15T05:07:43.742Z,-0.90
2018-12-15T05:12:44.575Z,-0.90
2018-12-15T05:17:45.337Z,-0.90
2018-12-15T05:22:47.567Z,-0.90
2018-12-15T05:27:48.474Z,-0.90
2018-12-15T05:32:49.449Z,-0.90
2018-12-15T05:37:50.562Z,-0.90
2018-12-15T05:48:27.569Z,-0.90
2018-12-15T05:53:28.387Z,-0.90
2018-12-15T05:58:29.205Z,-0.80
2018-12-15T06:03:30.538Z,-0.90
2018-12-15T06:08:31.406Z,-0.90
2018-12-15T06:13:32.112Z,-2.00
2018-12-15T06:18:33.059Z,-0.90
2018-12-15T06:23:33.701Z,-0.90
2018-12-15T06:28:34.528Z,-0.80
2018-12-15T06:33:35.262Z,-0.80
2018-12-15T06:38:36.170Z,-0.80
2018-12-15T06:43:37.598Z,-0.80
2018-12-15T06:48:38.407Z,-0.80
2018-12-15T06:53:40.341Z,-0.80
2018-12-15T06:58:41.106Z,-0.80
2018-12-15T07:03:41.940Z,-0.80
2018-12-15T07:08:43.647Z,-0.70
2018-12-15T07:13:44.485Z,-0.70
2018-12-15T07:18:45.421Z,-0.70
2018-12-15T07:23:46.217Z,-0.70
2018-12-15T07:28:46.952Z,-0.70
2018-12-15T07:33:48.017Z,-0.70
2018-12-15T07:38:49.332Z,-0.70
2018-12-15T07:43:50.248Z,-0.70
2018-12-15T07:48:51.562Z,-0.60
2018-12-15T07:53:52.745Z,-0.60
2018-12-15T07:58:53.470Z,-0.60
2018-12-15T08:03:54.599Z,-0.60
2018-12-15T08:08:55.580Z,-0.60
2018-12-15T08:14:04.920Z,-0.50
2018-12-15T08:19:05.995Z,-0.50
2018-12-15T08:24:06.956Z,-0.50
2018-12-15T08:29:07.694Z,-0.50
2018-12-15T08:34:08.497Z,-0.50
2018-12-15T08:39:09.216Z,-0.40
2018-12-15T08:44:11.017Z,-0.40
2018-12-15T08:49:11.809Z,-0.40
2018-12-15T08:54:12.657Z,-0.40
2018-12-15T08:59:13.521Z,-0.40
2018-12-15T09:04:14.264Z,-0.30
2018-12-15T09:09:15.062Z,-0.40
2018-12-15T09:14:16.836Z,-0.30
2018-12-15T09:19:17.736Z,-0.30
2018-12-15T09:24:18.621Z,-0.20
2018-12-15T09:29:19.528Z,-0.20
2018-12-15T09:34:20.430Z,-0.30
2018-12-15T09:39:21.272Z,-0.30
2018-12-15T09:44:22.062Z,-0.30
2018-12-15T09:49:22.695Z,-0.20
2018-12-15T09:54:23.989Z,-0.20
2018-12-15T09:59:24.755Z,-0.20
2018-12-15T10:04:26.049Z,-0.20
2018-12-15T10:09:26.885Z,-0.10
2018-12-15T10:14:27.589Z,-0.10
2018-12-15T10:19:28.376Z,-0.10
2018-12-15T10:24:29.224Z,-0.10
2018-12-15T10:29:35.925Z,-0.10
2018-12-15T10:34:36.890Z,0.00
2018-12-15T10:39:37.845Z,0.00
2018-12-15T10:44:38.718Z,0.00
2018-12-15T10:49:39.586Z,-0.10
2018-12-15T10:54:40.233Z,-0.10
2018-12-15T10:59:41.240Z,-0.10
2018-12-15T11:04:42.233Z,-0.10
2018-12-15T11:09:43.508Z,0.00
2018-12-15T11:14:44.434Z,0.00
2018-12-15T11:19:45.141Z,0.00
2018-12-15T11:24:46.087Z,0.00
2018-12-15T11:29:46.834Z,0.10
2018-12-15T11:34:47.686Z,0.10
2018-12-15T11:39:48.941Z,0.10
2018-12-15T11:44:49.853Z,0.10
2018-12-15T11:49:50.688Z,0.20
2018-12-15T11:54:51.497Z,0.20
2018-12-15T11:59:52.292Z,0.20
2018-12-15T12:04:53.086Z,0.10
2018-12-15T12:09:53.786Z,0.20
2018-12-15T12:14:54.804Z,0.10
2018-12-15T12:19:55.655Z,0.10
2018-12-15T12:24:56.493Z,0.20
2018-12-15T12:29:59.176Z,0.10
2018-12-15T12:35:00.013Z,0.20
2018-12-15T12:40:01.291Z,0.20
2018-12-15T12:45:04.550Z,0.20
2018-12-15T12:50:06.736Z,0.10
2018-12-15T12:55:08.131Z,0.20
2018-12-15T13:00:10.113Z,0.10
2018-12-15T13:05:12.538Z,0.20
2018-12-15T13:10:13.430Z,0.10
2018-12-15T13:15:14.190Z,0.10
2018-12-15T13:20:15.092Z,0.20
2018-12-15T13:25:15.854Z,0.10
2018-12-15T13:30:16.604Z,0.10
2018-12-15T13:35:17.419Z,0.10
2018-12-15T13:40:18.319Z,0.10
2018-12-15T13:45:19.320Z,0.10
2018-12-15T13:50:20.072Z,0.10
2018-12-15T13:55:20.848Z,0.20
2018-12-15T14:00:21.771Z,0.20
2018-12-15T14:05:22.687Z,0.10
2018-12-15T14:10:23.450Z,0.00
2018-12-15T14:15:24.246Z,0.00
2018-12-15T14:20:25.098Z,0.00
2018-12-15T14:25:26.027Z,0.00
2018-12-15T14:30:27.954Z,0.10
2018-12-15T14:35:28.897Z,0.00
2018-12-15T14:40:29.728Z,0.00
2018-12-15T14:45:30.518Z,0.00
2018-12-15T14:50:31.235Z,0.10
2018-12-15T14:55:32.053Z,0.00
2018-12-15T15:00:33.205Z,0.00
2018-12-15T15:05:34.028Z,-0.10
2018-12-15T15:10:34.795Z,-0.10
2018-12-15T15:15:35.526Z,-0.10
2018-12-15T15:20:36.774Z,-0.10
2018-12-15T15:25:37.542Z,-0.10
2018-12-15T15:30:38.424Z,-0.20
2018-12-15T15:35:39.293Z,-0.10
2018-12-15T15:40:40.297Z,-0.10
2018-12-15T15:45:41.214Z,-0.20
2018-12-15T15:50:42.043Z,-0.10
2018-12-15T15:55:42.816Z,-0.20
2018-12-15T16:00:43.650Z,-0.20
2018-12-15T16:05:44.399Z,-0.20
2018-12-15T16:10:45.251Z,-0.20
2018-12-15T16:15:47.033Z,-0.20
2018-12-15T16:20:48.569Z,-0.20
2018-12-15T16:25:50.477Z,-0.20
2018-12-15T16:30:51.350Z,-0.20
2018-12-15T16:35:52.259Z,-0.30
2018-12-15T16:40:53.091Z,-0.20
2018-12-15T16:45:54.212Z,-0.30
2018-12-15T16:50:55.996Z,-0.30
2018-12-15T16:55:56.828Z,-0.30
2018-12-15T17:00:57.609Z,-0.30
2018-12-15T17:05:59.857Z,-0.40
2018-12-15T17:11:01.127Z,-0.50
2018-12-15T17:16:01.979Z,-0.50
2018-12-15T17:21:02.893Z,-0.60
2018-12-15T17:26:04.207Z,-0.70
2018-12-15T17:31:05.415Z,-0.70
2018-12-15T17:36:06.464Z,-0.80
2018-12-15T17:41:07.550Z,-0.70
2018-12-15T17:46:09.239Z,-0.80
2018-12-15T17:51:11.091Z,-0.80
2018-12-15T17:56:12.085Z,-0.90
2018-12-15T18:01:13.954Z,-1.00
2018-12-15T18:06:14.664Z,-1.00
2018-12-15T18:11:15.441Z,-1.00
2018-12-15T18:16:17.211Z,-1.00
2018-12-15T18:21:18.104Z,-1.10
2018-12-15T18:26:19.073Z,-1.10
2018-12-15T18:31:21.525Z,-1.20
2018-12-15T18:36:22.439Z,-1.20
2018-12-15T18:41:23.500Z,-1.20
2018-12-15T18:46:24.305Z,-1.30
2018-12-15T18:51:25.532Z,-1.30
2018-12-15T18:56:33.186Z,-1.30
2018-12-15T19:01:34.211Z,-1.30
2018-12-15T19:06:35.226Z,-1.30
2018-12-15T19:11:36.653Z,-1.40
2018-12-15T19:33:24.427Z,-1.80
2018-12-15T19:38:25.277Z,-1.90
2018-12-15T19:43:26.401Z,-2.00
2018-12-15T19:48:27.382Z,-2.10
2018-12-15T19:53:39.261Z,-2.00
2018-12-15T20:09:43.874Z,-2.20
2018-12-15T20:14:44.824Z,-2.20
2018-12-15T20:19:45.975Z,-2.30
2018-12-15T20:24:47.764Z,-2.20
2018-12-15T20:29:49.720Z,-2.30
2018-12-15T20:34:50.703Z,-2.40
2018-12-15T20:39:51.962Z,-2.40
2018-12-15T20:44:52.841Z,-2.50
2018-12-15T20:49:54.073Z,-2.50
2018-12-15T20:54:55.042Z,-2.50
2018-12-15T20:59:55.744Z,-2.50
2018-12-15T21:04:57.405Z,-2.60
2018-12-15T21:10:06.773Z,-2.60
2018-12-15T21:15:26.607Z,-2.60
2018-12-15T21:20:43.903Z,-2.70
2018-12-15T21:25:54.460Z,-2.70
2018-12-15T21:42:54.484Z,-2.90
2018-12-15T21:48:28.098Z,-2.90
2018-12-15T21:53:51.409Z,-2.90
2018-12-15T22:04:27.916Z,-2.90
2018-12-15T22:09:41.225Z,-2.90
2018-12-15T22:14:48.751Z,-2.90
2018-12-15T22:19:57.897Z,-2.90
2018-12-15T22:25:00.567Z,-2.80
2018-12-15T22:30:01.408Z,-2.80
2018-12-15T22:35:02.372Z,-2.70
2018-12-15T22:40:03.971Z,-2.70
2018-12-15T22:45:06.150Z,-2.70
2018-12-15T22:50:09.547Z,-2.70
2018-12-15T22:55:11.092Z,-2.70
2018-12-15T23:00:13.450Z,-2.60
2018-12-15T23:05:18.744Z,-2.60
2018-12-15T23:10:19.889Z,-2.60
2018-12-15T23:15:20.871Z,-2.60
2018-12-15T23:20:21.810Z,-2.50
2018-12-15T23:25:24.052Z,-2.40
2018-12-15T23:30:25.188Z,-2.30
2018-12-15T23:35:26.254Z,-2.30
2018-12-15T23:40:27.474Z,-2.30
2018-12-15T23:45:28.435Z,-2.20
2018-12-15T23:50:29.373Z,-2.20
2018-12-15T23:55:30.130Z,-2.10
